sensor_id;sensor_type;location;lat;lon;timestamp;P1;durP1;ratioP1;P2;durP2;ratioP2
3257;SDS011;1641;51.306;12.384;2022-08-11T00:00:05;9.05;;;3.03;;
3257;SDS011;1641;51.306;12.384;2022-08-11T00:02:34;3.70;;;2.80;;
3257;SDS011;1641;51.306;12.384;2022-08-11T00:05:03;4.55;;;2.90;;
3257;SDS011;1641;51.306;12.384;2022-08-11T00:07:34;4.95;;;2.75;;
3257;SDS011;1641;51.306;12.384;2022-08-11T00:10:08;3.08;;;2.78;;
3257;SDS011;1641;51.306;12.384;2022-08-11T00:12:35;3.15;;;2.45;;
3257;SDS011;1641;51.306;12.384;2022-08-11T00:15:01;5.28;;;2.97;;
3257;SDS011;1641;51.306;12.384;2022-08-11T00:17:28;3.97;;;2.70;;
3257;SDS011;1641;51.306;12.384;2022-08-11T00:20:11;4.97;;;2.70;;
3257;SDS011;1641;51.306;12.384;2022-08-11T00:22:38;3.20;;;2.70;;
3257;SDS011;1641;51.306;12.384;2022-08-11T00:25:08;7.13;;;3.22;;
3257;SDS011;1641;51.306;12.384;2022-08-11T00:27:35;4.93;;;2.72;;
3257;SDS011;1641;51.306;12.384;2022-08-11T00:30:03;6.43;;;3.10;;
3257;SDS011;1641;51.306;12.384;2022-08-11T00:32:29;5.65;;;2.90;;
3257;SDS011;1641;51.306;12.384;2022-08-11T00:34:55;6.22;;;3.50;;
3257;SDS011;1641;51.306;12.384;2022-08-11T00:37:22;4.45;;;2.88;;
3257;SDS011;1641;51.306;12.384;2022-08-11T00:39:49;3.92;;;2.90;;
3257;SDS011;1641;51.306;12.384;2022-08-11T00:50:25;6.22;;;2.72;;
3257;SDS011;1641;51.306;12.384;2022-08-11T00:59:06;4.38;;;2.90;;
3257;SDS011;1641;51.306;12.384;2022-08-11T01:01:56;4.10;;;3.33;;
3257;SDS011;1641;51.306;12.384;2022-08-11T01:19:23;5.28;;;3.80;;
3257;SDS011;1641;51.306;12.384;2022-08-11T01:25:12;4.72;;;3.90;;
3257;SDS011;1641;51.306;12.384;2022-08-11T01:28:30;4.97;;;3.58;;
3257;SDS011;1641;51.306;12.384;2022-08-11T01:34:41;4.53;;;3.55;;
3257;SDS011;1641;51.306;12.384;2022-08-11T01:45:49;5.25;;;4.05;;
3257;SDS011;1641;51.306;12.384;2022-08-11T01:48:28;5.70;;;3.47;;
3257;SDS011;1641;51.306;12.384;2022-08-11T01:51:12;7.68;;;3.63;;
3257;SDS011;1641;51.306;12.384;2022-08-11T01:53:51;4.05;;;3.63;;
3257;SDS011;1641;51.306;12.384;2022-08-11T01:56:26;9.23;;;3.38;;
3257;SDS011;1641;51.306;12.384;2022-08-11T01:59:17;4.07;;;3.67;;
3257;SDS011;1641;51.306;12.384;2022-08-11T02:02:16;5.90;;;4.03;;
3257;SDS011;1641;51.306;12.384;2022-08-11T02:05:09;3.53;;;3.22;;
3257;SDS011;1641;51.306;12.384;2022-08-11T02:08:04;5.22;;;3.45;;
3257;SDS011;1641;51.306;12.384;2022-08-11T02:10:39;4.30;;;3.67;;
3257;SDS011;1641;51.306;12.384;2022-08-11T02:13:39;3.55;;;3.25;;
3257;SDS011;1641;51.306;12.384;2022-08-11T02:16:20;3.80;;;3.50;;
3257;SDS011;1641;51.306;12.384;2022-08-11T02:18:59;8.85;;;3.20;;
3257;SDS011;1641;51.306;12.384;2022-08-11T02:22:02;6.95;;;3.70;;
3257;SDS011;1641;51.306;12.384;2022-08-11T02:24:59;5.05;;;3.70;;
3257;SDS011;1641;51.306;12.384;2022-08-11T02:27:33;4.72;;;3.65;;
3257;SDS011;1641;51.306;12.384;2022-08-11T02:30:06;4.82;;;3.78;;
3257;SDS011;1641;51.306;12.384;2022-08-11T02:32:45;6.10;;;3.95;;
3257;SDS011;1641;51.306;12.384;2022-08-11T02:38:36;6.20;;;3.88;;
3257;SDS011;1641;51.306;12.384;2022-08-11T02:41:15;6.95;;;4.57;;
3257;SDS011;1641;51.306;12.384;2022-08-11T02:44:16;6.18;;;4.07;;
3257;SDS011;1641;51.306;12.384;2022-08-11T02:49:57;3.97;;;3.50;;
3257;SDS011;1641;51.306;12.384;2022-08-11T02:55:17;8.13;;;3.97;;
3257;SDS011;1641;51.306;12.384;2022-08-11T02:58:02;7.78;;;3.85;;
3257;SDS011;1641;51.306;12.384;2022-08-11T03:01:12;4.93;;;3.78;;
3257;SDS011;1641;51.306;12.384;2022-08-11T03:03:52;11.52;;;4.72;;
3257;SDS011;1641;51.306;12.384;2022-08-11T03:06:38;4.50;;;3.90;;
3257;SDS011;1641;51.306;12.384;2022-08-11T03:09:36;3.42;;;3.13;;
3257;SDS011;1641;51.306;12.384;2022-08-11T03:12:12;4.22;;;3.83;;
3257;SDS011;1641;51.306;12.384;2022-08-11T03:15:02;6.43;;;4.32;;
3257;SDS011;1641;51.306;12.384;2022-08-11T03:18:11;4.63;;;4.07;;
3257;SDS011;1641;51.306;12.384;2022-08-11T03:20:50;7.10;;;3.92;;
3257;SDS011;1641;51.306;12.384;2022-08-11T03:23:26;9.18;;;4.43;;
3257;SDS011;1641;51.306;12.384;2022-08-11T03:26:06;6.97;;;4.88;;
3257;SDS011;1641;51.306;12.384;2022-08-11T03:31:22;6.07;;;4.05;;
3257;SDS011;1641;51.306;12.384;2022-08-11T03:33:58;11.45;;;4.15;;
3257;SDS011;1641;51.306;12.384;2022-08-11T03:42:11;5.05;;;4.43;;
3257;SDS011;1641;51.306;12.384;2022-08-11T03:47:22;6.13;;;4.28;;
3257;SDS011;1641;51.306;12.384;2022-08-11T03:52:48;4.68;;;4.07;;
3257;SDS011;1641;51.306;12.384;2022-08-11T04:01:21;7.78;;;4.43;;
3257;SDS011;1641;51.306;12.384;2022-08-11T04:04:28;8.85;;;4.68;;
3257;SDS011;1641;51.306;12.384;2022-08-11T04:07:23;7.80;;;3.97;;
3257;SDS011;1641;51.306;12.384;2022-08-11T04:21:50;7.75;;;4.78;;
3257;SDS011;1641;51.306;12.384;2022-08-11T04:27:06;10.10;;;5.28;;
3257;SDS011;1641;51.306;12.384;2022-08-11T04:38:38;5.03;;;4.32;;
3257;SDS011;1641;51.306;12.384;2022-08-11T04:47:12;8.77;;;4.50;;
3257;SDS011;1641;51.306;12.384;2022-08-11T04:50:16;6.22;;;4.07;;
3257;SDS011;1641;51.306;12.384;2022-08-11T05:10:58;8.30;;;4.13;;
3257;SDS011;1641;51.306;12.384;2022-08-11T05:13:48;5.80;;;4.63;;
3257;SDS011;1641;51.306;12.384;2022-08-11T05:16:41;9.38;;;5.18;;
3257;SDS011;1641;51.306;12.384;2022-08-11T05:19:38;15.50;;;4.05;;
3257;SDS011;1641;51.306;12.384;2022-08-11T05:22:28;6.22;;;4.25;;
3257;SDS011;1641;51.306;12.384;2022-08-11T05:25:17;6.88;;;4.40;;
3257;SDS011;1641;51.306;12.384;2022-08-11T05:30:55;14.70;;;4.45;;
3257;SDS011;1641;51.306;12.384;2022-08-11T05:33:48;6.53;;;4.68;;
3257;SDS011;1641;51.306;12.384;2022-08-11T05:37:32;7.32;;;4.95;;
3257;SDS011;1641;51.306;12.384;2022-08-11T05:39:30;4.97;;;4.47;;
3257;SDS011;1641;51.306;12.384;2022-08-11T05:42:22;5.57;;;4.93;;
3257;SDS011;1641;51.306;12.384;2022-08-11T05:45:11;5.88;;;4.45;;
3257;SDS011;1641;51.306;12.384;2022-08-11T05:47:58;8.38;;;5.10;;
3257;SDS011;1641;51.306;12.384;2022-08-11T05:50:56;6.53;;;4.03;;
3257;SDS011;1641;51.306;12.384;2022-08-11T05:53:50;4.25;;;3.83;;
3257;SDS011;1641;51.306;12.384;2022-08-11T05:56:41;6.90;;;4.38;;
3257;SDS011;1641;51.306;12.384;2022-08-11T05:59:12;6.07;;;4.25;;
3257;SDS011;1641;51.306;12.384;2022-08-11T06:01:40;14.40;;;3.97;;
3257;SDS011;1641;51.306;12.384;2022-08-11T06:04:14;9.05;;;3.90;;
3257;SDS011;1641;51.306;12.384;2022-08-11T06:06:46;7.90;;;3.72;;
3257;SDS011;1641;51.306;12.384;2022-08-11T06:09:23;6.45;;;3.85;;
3257;SDS011;1641;51.306;12.384;2022-08-11T06:11:51;8.77;;;4.10;;
3257;SDS011;1641;51.306;12.384;2022-08-11T06:14:16;4.28;;;3.88;;
3257;SDS011;1641;51.306;12.384;2022-08-11T06:16:45;9.63;;;3.55;;
3257;SDS011;1641;51.306;12.384;2022-08-11T06:19:12;4.75;;;3.15;;
3257;SDS011;1641;51.306;12.384;2022-08-11T06:21:42;6.32;;;3.70;;
3257;SDS011;1641;51.306;12.384;2022-08-11T06:24:09;6.22;;;3.65;;
3257;SDS011;1641;51.306;12.384;2022-08-11T06:26:36;5.78;;;3.58;;
3257;SDS011;1641;51.306;12.384;2022-08-11T06:29:02;7.40;;;3.90;;
3257;SDS011;1641;51.306;12.384;2022-08-11T06:31:29;4.75;;;3.72;;
3257;SDS011;1641;51.306;12.384;2022-08-11T06:34:23;7.15;;;4.35;;
3257;SDS011;1641;51.306;12.384;2022-08-11T06:37:08;11.55;;;3.80;;
3257;SDS011;1641;51.306;12.384;2022-08-11T06:39:50;5.43;;;3.10;;
3257;SDS011;1641;51.306;12.384;2022-08-11T06:42:30;5.93;;;3.50;;
3257;SDS011;1641;51.306;12.384;2022-08-11T06:45:36;3.63;;;3.00;;
3257;SDS011;1641;51.306;12.384;2022-08-11T06:48:27;7.05;;;3.40;;
3257;SDS011;1641;51.306;12.384;2022-08-11T06:50:56;11.35;;;3.40;;
3257;SDS011;1641;51.306;12.384;2022-08-11T06:53:39;12.27;;;3.38;;
3257;SDS011;1641;51.306;12.384;2022-08-11T06:56:11;10.48;;;5.20;;
3257;SDS011;1641;51.306;12.384;2022-08-11T06:58:57;8.25;;;3.72;;
3257;SDS011;1641;51.306;12.384;2022-08-11T07:04:19;5.55;;;3.67;;
3257;SDS011;1641;51.306;12.384;2022-08-11T07:10:20;8.98;;;2.60;;
3257;SDS011;1641;51.306;12.384;2022-08-11T07:13:15;5.85;;;2.95;;
3257;SDS011;1641;51.306;12.384;2022-08-11T07:16:03;7.07;;;3.70;;
3257;SDS011;1641;51.306;12.384;2022-08-11T07:18:31;11.65;;;4.07;;
3257;SDS011;1641;51.306;12.384;2022-08-11T07:24:19;7.68;;;2.90;;
3257;SDS011;1641;51.306;12.384;2022-08-11T07:27:19;6.07;;;2.75;;
3257;SDS011;1641;51.306;12.384;2022-08-11T07:30:08;3.22;;;2.85;;
3257;SDS011;1641;51.306;12.384;2022-08-11T07:32:48;4.70;;;2.70;;
3257;SDS011;1641;51.306;12.384;2022-08-11T07:35:17;9.82;;;3.15;;
3257;SDS011;1641;51.306;12.384;2022-08-11T07:37:47;6.70;;;2.60;;
3257;SDS011;1641;51.306;12.384;2022-08-11T07:40:20;16.02;;;7.28;;
3257;SDS011;1641;51.306;12.384;2022-08-11T07:42:47;6.57;;;3.00;;
3257;SDS011;1641;51.306;12.384;2022-08-11T07:45:14;6.65;;;3.28;;
3257;SDS011;1641;51.306;12.384;2022-08-11T07:47:59;13.73;;;4.63;;
3257;SDS011;1641;51.306;12.384;2022-08-11T07:50:44;8.52;;;3.63;;
3257;SDS011;1641;51.306;12.384;2022-08-11T07:53:28;8.93;;;3.65;;
3257;SDS011;1641;51.306;12.384;2022-08-11T07:55:55;9.60;;;3.75;;
3257;SDS011;1641;51.306;12.384;2022-08-11T07:58:22;7.95;;;2.38;;
3257;SDS011;1641;51.306;12.384;2022-08-11T08:01:08;4.78;;;2.28;;
3257;SDS011;1641;51.306;12.384;2022-08-11T08:03:54;6.13;;;2.50;;
3257;SDS011;1641;51.306;12.384;2022-08-11T08:06:41;5.68;;;2.47;;
3257;SDS011;1641;51.306;12.384;2022-08-11T08:09:25;9.48;;;3.17;;
3257;SDS011;1641;51.306;12.384;2022-08-11T08:12:09;8.18;;;3.28;;
3257;SDS011;1641;51.306;12.384;2022-08-11T08:14:55;3.20;;;2.83;;
3257;SDS011;1641;51.306;12.384;2022-08-11T08:17:40;2.90;;;2.10;;
3257;SDS011;1641;51.306;12.384;2022-08-11T08:20:13;4.47;;;1.90;;
3257;SDS011;1641;51.306;12.384;2022-08-11T08:22:40;4.22;;;2.53;;
3257;SDS011;1641;51.306;12.384;2022-08-11T08:25:06;5.18;;;2.72;;
3257;SDS011;1641;51.306;12.384;2022-08-11T08:27:32;4.22;;;2.05;;
3257;SDS011;1641;51.306;12.384;2022-08-11T08:29:59;4.35;;;2.00;;
3257;SDS011;1641;51.306;12.384;2022-08-11T08:32:45;1.83;;;1.70;;
3257;SDS011;1641;51.306;12.384;2022-08-11T08:35:10;2.15;;;1.92;;
3257;SDS011;1641;51.306;12.384;2022-08-11T08:37:36;3.53;;;2.05;;
3257;SDS011;1641;51.306;12.384;2022-08-11T08:40:03;4.15;;;2.00;;
3257;SDS011;1641;51.306;12.384;2022-08-11T08:42:34;4.40;;;2.40;;
3257;SDS011;1641;51.306;12.384;2022-08-11T08:45:07;4.45;;;1.73;;
3257;SDS011;1641;51.306;12.384;2022-08-11T08:47:35;2.85;;;2.20;;
3257;SDS011;1641;51.306;12.384;2022-08-11T08:50:12;1.60;;;1.50;;
3257;SDS011;1641;51.306;12.384;2022-08-11T08:52:41;2.90;;;1.90;;
3257;SDS011;1641;51.306;12.384;2022-08-11T08:55:16;3.65;;;2.35;;
3257;SDS011;1641;51.306;12.384;2022-08-11T08:57:44;4.25;;;2.53;;
3257;SDS011;1641;51.306;12.384;2022-08-11T09:00:13;3.70;;;2.13;;
3257;SDS011;1641;51.306;12.384;2022-08-11T09:02:41;4.00;;;2.53;;
3257;SDS011;1641;51.306;12.384;2022-08-11T09:05:07;5.78;;;2.25;;
3257;SDS011;1641;51.306;12.384;2022-08-11T09:07:34;4.97;;;2.50;;
3257;SDS011;1641;51.306;12.384;2022-08-11T09:09:59;2.40;;;2.13;;
3257;SDS011;1641;51.306;12.384;2022-08-11T09:12:26;5.13;;;1.70;;
3257;SDS011;1641;51.306;12.384;2022-08-11T09:14:52;4.13;;;1.90;;
3257;SDS011;1641;51.306;12.384;2022-08-11T09:17:39;1.90;;;1.75;;
3257;SDS011;1641;51.306;12.384;2022-08-11T09:20:08;5.85;;;2.10;;
3257;SDS011;1641;51.306;12.384;2022-08-11T09:22:35;5.32;;;1.83;;
3257;SDS011;1641;51.306;12.384;2022-08-11T09:25:23;2.45;;;1.90;;
3257;SDS011;1641;51.306;12.384;2022-08-11T09:28:10;2.55;;;1.92;;
3257;SDS011;1641;51.306;12.384;2022-08-11T09:30:39;8.30;;;2.30;;
3257;SDS011;1641;51.306;12.384;2022-08-11T09:33:06;2.45;;;1.92;;
3257;SDS011;1641;51.306;12.384;2022-08-11T09:35:35;4.43;;;2.10;;
3257;SDS011;1641;51.306;12.384;2022-08-11T09:38:03;7.03;;;1.80;;
3257;SDS011;1641;51.306;12.384;2022-08-11T09:40:48;5.85;;;1.88;;
3257;SDS011;1641;51.306;12.384;2022-08-11T09:43:15;6.47;;;1.90;;
3257;SDS011;1641;51.306;12.384;2022-08-11T09:46:01;5.28;;;1.83;;
3257;SDS011;1641;51.306;12.384;2022-08-11T09:48:31;5.07;;;2.03;;
3257;SDS011;1641;51.306;12.384;2022-08-11T09:51:01;1.83;;;1.73;;
3257;SDS011;1641;51.306;12.384;2022-08-11T09:53:29;3.67;;;1.73;;
3257;SDS011;1641;51.306;12.384;2022-08-11T09:55:57;2.10;;;1.90;;
3257;SDS011;1641;51.306;12.384;2022-08-11T09:58:44;3.03;;;2.20;;
3257;SDS011;1641;51.306;12.384;2022-08-11T10:01:09;4.20;;;2.00;;
3257;SDS011;1641;51.306;12.384;2022-08-11T10:06:16;4.30;;;1.83;;
3257;SDS011;1641;51.306;12.384;2022-08-11T10:09:00;3.20;;;1.95;;
3257;SDS011;1641;51.306;12.384;2022-08-11T10:11:30;6.68;;;1.85;;
3257;SDS011;1641;51.306;12.384;2022-08-11T10:13:55;4.72;;;2.20;;
3257;SDS011;1641;51.306;12.384;2022-08-11T10:16:39;4.35;;;2.03;;
3257;SDS011;1641;51.306;12.384;2022-08-11T10:19:05;6.15;;;3.95;;
3257;SDS011;1641;51.306;12.384;2022-08-11T10:21:37;5.35;;;1.88;;
3257;SDS011;1641;51.306;12.384;2022-08-11T10:24:06;8.98;;;2.05;;
3257;SDS011;1641;51.306;12.384;2022-08-11T10:26:52;2.78;;;1.85;;
3257;SDS011;1641;51.306;12.384;2022-08-11T10:29:19;7.47;;;1.70;;
3257;SDS011;1641;51.306;12.384;2022-08-11T10:32:05;3.47;;;1.70;;
3257;SDS011;1641;51.306;12.384;2022-08-11T10:34:50;8.15;;;1.90;;
3257;SDS011;1641;51.306;12.384;2022-08-11T10:37:17;6.88;;;2.00;;
3257;SDS011;1641;51.306;12.384;2022-08-11T10:39:46;3.50;;;2.05;;
3257;SDS011;1641;51.306;12.384;2022-08-11T10:42:12;3.00;;;1.90;;
3257;SDS011;1641;51.306;12.384;2022-08-11T10:44:57;4.03;;;1.92;;
3257;SDS011;1641;51.306;12.384;2022-08-11T10:47:26;3.13;;;2.40;;
3257;SDS011;1641;51.306;12.384;2022-08-11T10:50:06;3.90;;;2.25;;
3257;SDS011;1641;51.306;12.384;2022-08-11T10:52:53;2.10;;;1.90;;
3257;SDS011;1641;51.306;12.384;2022-08-11T10:55:38;4.72;;;2.78;;
3257;SDS011;1641;51.306;12.384;2022-08-11T10:58:25;4.97;;;1.73;;
3257;SDS011;1641;51.306;12.384;2022-08-11T11:01:10;3.97;;;1.98;;
3257;SDS011;1641;51.306;12.384;2022-08-11T11:03:36;4.10;;;2.10;;
3257;SDS011;1641;51.306;12.384;2022-08-11T11:06:16;5.22;;;2.58;;
3257;SDS011;1641;51.306;12.384;2022-08-11T11:08:50;5.45;;;2.17;;
3257;SDS011;1641;51.306;12.384;2022-08-11T11:11:23;4.07;;;2.85;;
3257;SDS011;1641;51.306;12.384;2022-08-11T11:14:14;2.28;;;1.90;;
3257;SDS011;1641;51.306;12.384;2022-08-11T11:17:00;8.68;;;2.53;;
3257;SDS011;1641;51.306;12.384;2022-08-11T11:19:37;4.82;;;2.42;;
3257;SDS011;1641;51.306;12.384;2022-08-11T11:22:04;6.07;;;2.25;;
3257;SDS011;1641;51.306;12.384;2022-08-11T11:24:55;6.28;;;2.03;;
3257;SDS011;1641;51.306;12.384;2022-08-11T11:30:54;2.20;;;1.80;;
3257;SDS011;1641;51.306;12.384;2022-08-11T11:33:48;2.30;;;2.10;;
3257;SDS011;1641;51.306;12.384;2022-08-11T11:36:44;4.00;;;2.20;;
3257;SDS011;1641;51.306;12.384;2022-08-11T11:39:12;3.08;;;2.08;;
3257;SDS011;1641;51.306;12.384;2022-08-11T11:41:42;6.53;;;2.20;;
3257;SDS011;1641;51.306;12.384;2022-08-11T11:44:07;5.15;;;2.33;;
3257;SDS011;1641;51.306;12.384;2022-08-11T11:46:35;2.45;;;1.77;;
3257;SDS011;1641;51.306;12.384;2022-08-11T11:49:01;1.83;;;1.60;;
3257;SDS011;1641;51.306;12.384;2022-08-11T11:51:31;3.67;;;2.10;;
3257;SDS011;1641;51.306;12.384;2022-08-11T11:53:57;7.40;;;2.00;;
3257;SDS011;1641;51.306;12.384;2022-08-11T11:56:26;3.78;;;2.03;;
3257;SDS011;1641;51.306;12.384;2022-08-11T11:58:52;6.72;;;1.95;;
3257;SDS011;1641;51.306;12.384;2022-08-11T12:01:37;3.30;;;2.00;;
3257;SDS011;1641;51.306;12.384;2022-08-11T12:04:02;2.08;;;1.98;;
3257;SDS011;1641;51.306;12.384;2022-08-11T12:06:32;3.53;;;1.90;;
3257;SDS011;1641;51.306;12.384;2022-08-11T12:08:58;2.92;;;1.88;;
3257;SDS011;1641;51.306;12.384;2022-08-11T12:11:24;2.78;;;1.63;;
3257;SDS011;1641;51.306;12.384;2022-08-11T12:14:10;3.20;;;1.92;;
3257;SDS011;1641;51.306;12.384;2022-08-11T12:16:37;4.47;;;1.90;;
3257;SDS011;1641;51.306;12.384;2022-08-11T12:19:09;3.72;;;1.80;;
3257;SDS011;1641;51.306;12.384;2022-08-11T12:21:36;5.50;;;3.17;;
3257;SDS011;1641;51.306;12.384;2022-08-11T12:24:23;3.13;;;2.08;;
3257;SDS011;1641;51.306;12.384;2022-08-11T12:27:06;4.15;;;1.95;;
3257;SDS011;1641;51.306;12.384;2022-08-11T12:29:49;3.33;;;1.80;;
3257;SDS011;1641;51.306;12.384;2022-08-11T12:32:17;4.30;;;1.88;;
3257;SDS011;1641;51.306;12.384;2022-08-11T12:34:43;4.22;;;1.95;;
3257;SDS011;1641;51.306;12.384;2022-08-11T12:37:09;2.50;;;2.05;;
3257;SDS011;1641;51.306;12.384;2022-08-11T12:39:37;3.15;;;2.00;;
3257;SDS011;1641;51.306;12.384;2022-08-11T12:42:24;2.55;;;2.15;;
3257;SDS011;1641;51.306;12.384;2022-08-11T12:45:10;3.78;;;2.00;;
3257;SDS011;1641;51.306;12.384;2022-08-11T12:47:56;10.18;;;1.73;;
3257;SDS011;1641;51.306;12.384;2022-08-11T12:50:45;6.57;;;2.20;;
3257;SDS011;1641;51.306;12.384;2022-08-11T12:53:34;2.47;;;1.77;;
3257;SDS011;1641;51.306;12.384;2022-08-11T12:56:06;9.73;;;2.17;;
3257;SDS011;1641;51.306;12.384;2022-08-11T12:58:51;1.85;;;1.70;;
3257;SDS011;1641;51.306;12.384;2022-08-11T13:01:17;2.70;;;1.65;;
3257;SDS011;1641;51.306;12.384;2022-08-11T13:04:01;3.83;;;2.20;;
3257;SDS011;1641;51.306;12.384;2022-08-11T13:06:46;1.90;;;1.63;;
3257;SDS011;1641;51.306;12.384;2022-08-11T13:09:12;4.00;;;2.00;;
3257;SDS011;1641;51.306;12.384;2022-08-11T13:11:38;3.42;;;1.90;;
3257;SDS011;1641;51.306;12.384;2022-08-11T13:14:24;2.60;;;1.63;;
3257;SDS011;1641;51.306;12.384;2022-08-11T13:16:51;3.38;;;2.13;;
3257;SDS011;1641;51.306;12.384;2022-08-11T13:19:35;6.38;;;2.10;;
3257;SDS011;1641;51.306;12.384;2022-08-11T13:22:01;7.75;;;2.38;;
3257;SDS011;1641;51.306;12.384;2022-08-11T13:24:29;5.53;;;2.13;;
3257;SDS011;1641;51.306;12.384;2022-08-11T13:26:58;3.63;;;2.40;;
3257;SDS011;1641;51.306;12.384;2022-08-11T13:29:24;6.00;;;2.22;;
3257;SDS011;1641;51.306;12.384;2022-08-11T13:31:52;5.30;;;1.80;;
3257;SDS011;1641;51.306;12.384;2022-08-11T13:34:20;6.70;;;2.47;;
3257;SDS011;1641;51.306;12.384;2022-08-11T13:36:50;8.50;;;1.73;;
3257;SDS011;1641;51.306;12.384;2022-08-11T13:39:17;2.38;;;1.50;;
3257;SDS011;1641;51.306;12.384;2022-08-11T13:41:43;2.75;;;1.83;;
3257;SDS011;1641;51.306;12.384;2022-08-11T13:44:12;4.90;;;2.35;;
3257;SDS011;1641;51.306;12.384;2022-08-11T13:46:39;2.00;;;1.80;;
3257;SDS011;1641;51.306;12.384;2022-08-11T13:49:05;4.82;;;1.98;;
3257;SDS011;1641;51.306;12.384;2022-08-11T13:51:35;5.68;;;2.08;;
3257;SDS011;1641;51.306;12.384;2022-08-11T13:54:06;4.40;;;1.90;;
3257;SDS011;1641;51.306;12.384;2022-08-11T13:56:34;3.58;;;1.98;;
3257;SDS011;1641;51.306;12.384;2022-08-11T13:59:03;3.55;;;2.13;;
3257;SDS011;1641;51.306;12.384;2022-08-11T14:01:31;7.35;;;2.35;;
3257;SDS011;1641;51.306;12.384;2022-08-11T14:06:45;3.75;;;2.33;;
3257;SDS011;1641;51.306;12.384;2022-08-11T14:09:14;5.72;;;2.50;;
3257;SDS011;1641;51.306;12.384;2022-08-11T14:11:45;4.70;;;1.67;;
3257;SDS011;1641;51.306;12.384;2022-08-11T14:14:33;5.47;;;2.58;;
3257;SDS011;1641;51.306;12.384;2022-08-11T14:17:00;7.20;;;2.15;;
3257;SDS011;1641;51.306;12.384;2022-08-11T14:19:34;5.43;;;2.33;;
3257;SDS011;1641;51.306;12.384;2022-08-11T14:22:03;7.65;;;2.08;;
3257;SDS011;1641;51.306;12.384;2022-08-11T14:24:37;5.70;;;2.35;;
3257;SDS011;1641;51.306;12.384;2022-08-11T14:27:09;6.15;;;2.63;;
3257;SDS011;1641;51.306;12.384;2022-08-11T14:32:04;2.92;;;2.00;;
3257;SDS011;1641;51.306;12.384;2022-08-11T14:34:31;3.75;;;2.10;;
3257;SDS011;1641;51.306;12.384;2022-08-11T14:36:59;2.03;;;1.80;;
3257;SDS011;1641;51.306;12.384;2022-08-11T14:39:28;7.18;;;1.67;;
3257;SDS011;1641;51.306;12.384;2022-08-11T14:42:00;6.35;;;2.00;;
3257;SDS011;1641;51.306;12.384;2022-08-11T14:44:47;2.47;;;1.90;;
3257;SDS011;1641;51.306;12.384;2022-08-11T14:47:37;2.90;;;1.98;;
3257;SDS011;1641;51.306;12.384;2022-08-11T14:50:05;3.95;;;1.88;;
3257;SDS011;1641;51.306;12.384;2022-08-11T14:52:32;7.57;;;2.08;;
3257;SDS011;1641;51.306;12.384;2022-08-11T14:55:01;3.25;;;2.00;;
3257;SDS011;1641;51.306;12.384;2022-08-11T14:57:45;3.95;;;1.65;;
3257;SDS011;1641;51.306;12.384;2022-08-11T15:00:21;1.98;;;1.83;;
3257;SDS011;1641;51.306;12.384;2022-08-11T15:02:47;6.88;;;1.90;;
3257;SDS011;1641;51.306;12.384;2022-08-11T15:05:34;3.03;;;1.83;;
3257;SDS011;1641;51.306;12.384;2022-08-11T15:08:03;2.05;;;1.83;;
3257;SDS011;1641;51.306;12.384;2022-08-11T15:10:29;4.53;;;2.10;;
3257;SDS011;1641;51.306;12.384;2022-08-11T15:12:54;3.58;;;1.92;;
3257;SDS011;1641;51.306;12.384;2022-08-11T15:15:20;3.00;;;1.85;;
3257;SDS011;1641;51.306;12.384;2022-08-11T15:18:10;3.45;;;2.20;;
3257;SDS011;1641;51.306;12.384;2022-08-11T15:20:38;5.10;;;2.60;;
3257;SDS011;1641;51.306;12.384;2022-08-11T15:23:23;9.57;;;2.65;;
3257;SDS011;1641;51.306;12.384;2022-08-11T15:26:18;1.80;;;1.70;;
3257;SDS011;1641;51.306;12.384;2022-08-11T15:32:04;4.47;;;1.85;;
3257;SDS011;1641;51.306;12.384;2022-08-11T15:34:53;2.90;;;1.90;;
3257;SDS011;1641;51.306;12.384;2022-08-11T15:37:41;8.43;;;2.17;;
3257;SDS011;1641;51.306;12.384;2022-08-11T15:40:17;5.32;;;1.95;;
3257;SDS011;1641;51.306;12.384;2022-08-11T15:43:07;5.25;;;1.80;;
3257;SDS011;1641;51.306;12.384;2022-08-11T15:46:06;3.60;;;1.90;;
3257;SDS011;1641;51.306;12.384;2022-08-11T15:48:43;3.50;;;1.77;;
3257;SDS011;1641;51.306;12.384;2022-08-11T15:51:27;2.45;;;1.92;;
3257;SDS011;1641;51.306;12.384;2022-08-11T15:53:57;6.60;;;1.75;;
3257;SDS011;1641;51.306;12.384;2022-08-11T15:56:29;5.00;;;1.65;;
3257;SDS011;1641;51.306;12.384;2022-08-11T15:58:57;2.05;;;1.73;;
3257;SDS011;1641;51.306;12.384;2022-08-11T16:01:43;2.00;;;1.85;;
3257;SDS011;1641;51.306;12.384;2022-08-11T16:04:30;4.97;;;1.88;;
3257;SDS011;1641;51.306;12.384;2022-08-11T16:06:59;3.97;;;1.80;;
3257;SDS011;1641;51.306;12.384;2022-08-11T16:12:04;2.85;;;1.52;;
3257;SDS011;1641;51.306;12.384;2022-08-11T16:14:34;5.28;;;1.98;;
3257;SDS011;1641;51.306;12.384;2022-08-11T16:17:25;2.17;;;1.83;;
3257;SDS011;1641;51.306;12.384;2022-08-11T16:19:54;2.97;;;1.95;;
3257;SDS011;1641;51.306;12.384;2022-08-11T16:22:25;5.25;;;1.67;;
3257;SDS011;1641;51.306;12.384;2022-08-11T16:24:59;3.55;;;1.90;;
3257;SDS011;1641;51.306;12.384;2022-08-11T16:27:30;2.47;;;1.80;;
3257;SDS011;1641;51.306;12.384;2022-08-11T16:29:59;2.97;;;2.05;;
3257;SDS011;1641;51.306;12.384;2022-08-11T16:32:25;3.45;;;2.10;;
3257;SDS011;1641;51.306;12.384;2022-08-11T16:34:55;1.83;;;1.70;;
3257;SDS011;1641;51.306;12.384;2022-08-11T16:37:44;4.38;;;1.92;;
3257;SDS011;1641;51.306;12.384;2022-08-11T16:40:29;2.38;;;1.95;;
3257;SDS011;1641;51.306;12.384;2022-08-11T16:42:56;4.68;;;2.00;;
3257;SDS011;1641;51.306;12.384;2022-08-11T16:45:41;6.75;;;2.10;;
3257;SDS011;1641;51.306;12.384;2022-08-11T16:48:28;3.88;;;1.90;;
3257;SDS011;1641;51.306;12.384;2022-08-11T16:50:56;7.20;;;2.00;;
3257;SDS011;1641;51.306;12.384;2022-08-11T16:53:24;3.60;;;1.70;;
3257;SDS011;1641;51.306;12.384;2022-08-11T16:55:52;2.97;;;1.67;;
3257;SDS011;1641;51.306;12.384;2022-08-11T16:58:20;4.07;;;2.00;;
3257;SDS011;1641;51.306;12.384;2022-08-11T17:01:05;4.70;;;1.92;;
3257;SDS011;1641;51.306;12.384;2022-08-11T17:03:32;3.53;;;2.28;;
3257;SDS011;1641;51.306;12.384;2022-08-11T17:06:30;3.22;;;2.20;;
3257;SDS011;1641;51.306;12.384;2022-08-11T17:09:20;3.72;;;1.60;;
3257;SDS011;1641;51.306;12.384;2022-08-11T17:12:07;2.40;;;1.70;;
3257;SDS011;1641;51.306;12.384;2022-08-11T17:14:54;3.60;;;1.50;;
3257;SDS011;1641;51.306;12.384;2022-08-11T17:17:40;6.63;;;1.63;;
3257;SDS011;1641;51.306;12.384;2022-08-11T17:20:06;1.63;;;1.52;;
3257;SDS011;1641;51.306;12.384;2022-08-11T17:22:35;3.67;;;1.58;;
3257;SDS011;1641;51.306;12.384;2022-08-11T17:25:20;7.95;;;1.60;;
3257;SDS011;1641;51.306;12.384;2022-08-11T17:27:47;7.13;;;1.83;;
3257;SDS011;1641;51.306;12.384;2022-08-11T17:30:14;2.63;;;1.73;;
3257;SDS011;1641;51.306;12.384;2022-08-11T17:32:40;2.17;;;1.40;;
3257;SDS011;1641;51.306;12.384;2022-08-11T17:35:29;3.78;;;1.50;;
3257;SDS011;1641;51.306;12.384;2022-08-11T17:38:14;4.72;;;3.30;;
3257;SDS011;1641;51.306;12.384;2022-08-11T17:40:44;6.80;;;1.70;;
3257;SDS011;1641;51.306;12.384;2022-08-11T17:43:35;2.15;;;1.50;;
3257;SDS011;1641;51.306;12.384;2022-08-11T17:46:21;5.15;;;1.63;;
3257;SDS011;1641;51.306;12.384;2022-08-11T17:49:22;4.05;;;1.20;;
3257;SDS011;1641;51.306;12.384;2022-08-11T17:51:50;2.45;;;1.50;;
3257;SDS011;1641;51.306;12.384;2022-08-11T17:54:38;1.98;;;1.17;;
3257;SDS011;1641;51.306;12.384;2022-08-11T17:57:26;6.43;;;1.58;;
3257;SDS011;1641;51.306;12.384;2022-08-11T18:00:12;1.40;;;1.30;;
3257;SDS011;1641;51.306;12.384;2022-08-11T18:02:46;2.17;;;1.48;;
3257;SDS011;1641;51.306;12.384;2022-08-11T18:05:35;2.45;;;1.40;;
3257;SDS011;1641;51.306;12.384;2022-08-11T18:08:02;5.00;;;1.40;;
3257;SDS011;1641;51.306;12.384;2022-08-11T18:10:53;9.95;;;4.25;;
3257;SDS011;1641;51.306;12.384;2022-08-11T18:13:38;6.82;;;2.13;;
3257;SDS011;1641;51.306;12.384;2022-08-11T18:16:27;3.65;;;1.65;;
3257;SDS011;1641;51.306;12.384;2022-08-11T18:19:11;4.20;;;1.10;;
3257;SDS011;1641;51.306;12.384;2022-08-11T18:22:00;5.07;;;1.35;;
3257;SDS011;1641;51.306;12.384;2022-08-11T18:25:19;5.38;;;1.50;;
3257;SDS011;1641;51.306;12.384;2022-08-11T18:28:07;7.57;;;1.42;;
3257;SDS011;1641;51.306;12.384;2022-08-11T18:30:55;2.10;;;1.40;;